Time;durP1;ratioP1;P1;durP2;ratioP2;P2;SDS_P1;SDS_P2;PMS_P1;PMS_P2;Temp;Humidity;BMP_temperature;BMP_pressure;BME280_temperature;BME280_humidity;BME280_pressure;Samples;Min_cycle;Max_cycle;Signal;HPM_P1;HPM_P2
2023/07/11 00:00:55;;;;;;;;;4.00;4.00;;;;;26.54;34.38;101159.00;5052957;28;45460;-60
2023/07/11 00:03:21;;;;;;;;;3.00;3.00;;;;;26.49;34.15;101153.66;5052430;28;45487;-58
2023/07/11 00:06:07;;;;;;;;;3.67;3.00;;;;;26.51;34.04;101148.13;5054881;28;45296;-60
2023/07/11 00:08:33;;;;;;;;;4.00;3.00;;;;;26.50;34.32;101149.09;5052070;28;45717;-60
2023/07/11 00:10:59;;;;;;;;;2.67;2.67;;;;;26.49;34.44;101150.94;5054079;28;45342;-58
2023/07/11 00:13:24;;;;;;;;;2.00;2.00;;;;;26.42;34.58;101141.13;5054076;28;45382;-58
2023/07/11 00:15:58;;;;;;;;;3.00;3.00;;;;;26.42;34.41;101134.78;5053984;28;45348;-59
2023/07/11 00:18:24;;;;;;;;;3.67;3.67;;;;;26.41;34.20;101141.19;5053131;28;45459;-58
2023/07/11 00:20:49;;;;;;;;;2.00;2.00;;;;;26.40;34.67;101136.63;5053973;28;45381;-58
2023/07/11 00:23:15;;;;;;;;;2.00;2.00;;;;;26.35;34.63;101130.41;5054368;28;45525;-60
2023/07/11 00:25:40;;;;;;;;;4.33;1.67;;;;;26.37;34.94;101142.25;5054556;28;47635;-59
2023/07/11 00:28:05;;;;;;;;;3.67;3.00;;;;;26.35;35.05;101136.81;5053888;28;45495;-60
2023/07/11 00:30:30;;;;;;;;;4.67;3.00;;;;;26.33;34.83;101129.59;5053433;28;45361;-59
2023/07/11 00:32:56;;;;;;;;;3.00;3.00;;;;;26.27;34.88;101128.84;5053179;28;52377;-59
2023/07/11 00:35:21;;;;;;;;;4.00;2.67;;;;;26.29;35.12;101128.78;5053210;28;45440;-59
2023/07/11 00:37:46;;;;;;;;;1.00;1.00;;;;;26.27;35.19;101131.59;5053713;28;46190;-59
2023/07/11 00:40:12;;;;;;;;;3.00;3.00;;;;;26.22;35.20;101125.38;5053072;28;53215;-58
2023/07/11 00:42:37;;;;;;;;;2.67;2.67;;;;;26.25;35.07;101128.00;5053576;28;45524;-59
2023/07/11 00:45:03;;;;;;;;;4.00;2.33;;;;;26.24;35.32;101128.94;5052981;28;45470;-63
2023/07/11 00:47:30;;;;;;;;;4.00;2.00;;;;;26.23;35.68;101132.66;5052555;28;45799;-59
2023/07/11 00:50:06;;;;;;;;;1.00;1.00;;;;;26.17;35.66;101127.38;5052684;28;45352;-59
2023/07/11 00:52:35;;;;;;;;;4.00;3.00;;;;;26.08;35.44;101109.38;5053348;28;45324;-59
2023/07/11 00:55:08;;;;;;;;;3.33;2.00;;;;;26.17;35.75;101124.63;5054027;28;45424;-58
2023/07/11 00:57:37;;;;;;;;;2.33;2.33;;;;;26.16;36.06;101125.56;5052054;28;48446;-59
2023/07/11 01:00:04;;;;;;;;;2.33;2.33;;;;;26.10;35.97;101109.31;5053111;28;45529;-63
2023/07/11 01:02:31;;;;;;;;;3.67;2.00;;;;;26.15;35.88;101117.38;5053746;28;45443;-59
2023/07/11 01:04:59;;;;;;;;;2.67;2.00;;;;;26.13;35.88;101114.69;5057358;28;45498;-59
2023/07/11 01:07:28;;;;;;;;;6.00;3.00;;;;;26.15;35.87;101128.34;5057586;28;45264;-60
2023/07/11 01:09:53;;;;;;;;;3.00;1.00;;;;;26.02;35.78;101105.94;5058345;28;45602;-63
2023/07/11 01:12:19;;;;;;;;;2.67;2.00;;;;;26.10;36.03;101123.00;5058507;28;45396;-63
2023/07/11 01:14:48;;;;;;;;;3.00;1.67;;;;;26.10;36.22;101121.19;5057386;28;45511;-60
2023/07/11 01:17:24;;;;;;;;;4.33;2.00;;;;;26.09;36.22;101122.13;5057238;28;46813;-58
2023/07/11 01:19:50;;;;;;;;;3.00;3.00;;;;;26.07;36.15;101115.81;5056562;28;45476;-59
2023/07/11 01:22:15;;;;;;;;;3.67;2.67;;;;;26.05;35.97;101116.78;5056723;28;45447;-62
2023/07/11 01:24:41;;;;;;;;;3.67;3.00;;;;;26.02;36.07;101108.66;5054947;28;45496;-59
2023/07/11 01:27:06;;;;;;;;;2.33;2.00;;;;;26.03;36.32;101114.09;5056802;28;46046;-59
2023/07/11 01:29:32;;;;;;;;;2.33;2.33;;;;;25.97;36.72;101103.38;5056590;28;45374;-59
2023/07/11 01:31:58;;;;;;;;;4.00;2.00;;;;;25.82;36.58;101068.22;5056950;28;45491;-59
2023/07/11 01:34:24;;;;;;;;;2.00;2.00;;;;;25.99;36.74;101096.00;5056896;28;45439;-58
2023/07/11 01:36:50;;;;;;;;;2.00;2.00;;;;;25.87;36.68;101080.81;5057020;28;46191;-58
2023/07/11 01:39:16;;;;;;;;;2.33;2.33;;;;;26.01;36.74;101101.41;5054822;28;49405;-58
2023/07/11 01:41:42;;;;;;;;;3.33;1.67;;;;;26.00;36.49;101114.19;5056849;28;45436;-59
2023/07/11 01:44:10;;;;;;;;;5.33;2.00;;;;;25.85;36.84;101084.53;5055481;28;45452;-58
2023/07/11 01:46:35;;;;;;;;;3.00;2.67;;;;;25.84;37.04;101080.03;5056840;28;48218;-61
2023/07/11 01:49:02;;;;;;;;;3.00;3.00;;;;;25.85;37.09;101101.84;5056433;28;45423;-59
2023/07/11 01:51:27;;;;;;;;;4.00;2.00;;;;;25.90;36.85;101109.94;5056698;28;45795;-59
2023/07/11 01:53:53;;;;;;;;;3.00;3.00;;;;;25.87;37.18;101108.19;5056510;28;45515;-60
2023/07/11 01:56:18;;;;;;;;;3.00;2.00;;;;;25.84;37.32;101093.72;5055853;28;47146;-59
2023/07/11 01:58:43;;;;;;;;;4.00;3.00;;;;;25.84;37.62;101093.72;5055256;28;46743;-58
2023/07/11 02:01:09;;;;;;;;;3.00;2.00;;;;;25.81;37.56;101088.34;5055835;28;45514;-59
2023/07/11 02:03:34;;;;;;;;;0.67;0.67;;;;;25.84;37.38;101088.25;5057017;28;45428;-59
2023/07/11 02:05:59;;;;;;;;;2.67;1.00;;;;;25.79;37.52;101077.44;5058035;28;45326;-59
2023/07/11 02:08:25;;;;;;;;;1.00;0.00;;;;;25.83;37.53;101081.84;5055967;28;45426;-60
2023/07/11 02:10:51;;;;;;;;;1.00;1.00;;;;;25.81;37.65;101085.59;5056285;28;45385;-59
2023/07/11 02:13:16;;;;;;;;;2.67;2.67;;;;;25.81;37.74;101088.34;5056046;28;45355;-59
2023/07/11 02:15:42;;;;;;;;;3.33;2.67;;;;;25.56;37.74;101034.38;5054219;28;46301;-59
2023/07/11 02:18:08;;;;;;;;;6.33;3.33;;;;;25.80;37.88;101073.72;5056128;28;45377;-59
2023/07/11 02:20:38;;;;;;;;;2.67;2.67;;;;;25.80;37.63;101073.72;5056283;28;45290;-59
2023/07/11 02:23:04;;;;;;;;;3.67;2.00;;;;;25.80;38.17;101073.72;5056504;28;45454;-57
2023/07/11 02:25:29;;;;;;;;;4.00;2.00;;;;;25.74;38.25;101057.53;5055607;28;51329;-59
2023/07/11 02:27:54;;;;;;;;;2.67;2.67;;;;;25.78;38.15;101067.41;5055626;28;45467;-60
2023/07/11 02:30:20;;;;;;;;;3.00;2.00;;;;;25.78;37.94;101061.06;5055265;28;47622;-59
2023/07/11 02:32:45;;;;;;;;;2.33;2.33;;;;;25.73;37.87;101059.34;5055158;28;46518;-58
2023/07/11 02:35:10;;;;;;;;;4.33;2.00;;;;;25.74;38.35;101052.94;5055878;28;46147;-58
2023/07/11 02:37:36;;;;;;;;;3.00;3.00;;;;;25.74;38.23;101055.69;5055535;28;45431;-59
2023/07/11 02:40:01;;;;;;;;;4.00;3.00;;;;;25.72;38.36;101062.13;5056154;28;45287;-59
2023/07/11 02:42:27;;;;;;;;;5.00;3.00;;;;;25.73;38.56;101058.47;5057372;28;45456;-59
2023/07/11 02:44:52;;;;;;;;;2.00;2.00;;;;;25.71;38.32;101052.16;5055980;28;46031;-59
2023/07/11 02:47:17;;;;;;;;;3.00;3.00;;;;;25.68;38.30;101047.66;5056930;28;45638;-58
2023/07/11 02:49:43;;;;;;;;;3.33;2.00;;;;;25.67;38.43;101047.72;5055798;28;45285;-58
2023/07/11 02:52:10;;;;;;;;;3.00;3.00;;;;;25.51;38.36;101023.56;5056413;28;45270;-60
2023/07/11 02:54:36;;;;;;;;;4.00;3.00;;;;;25.66;38.47;101044.09;5056013;28;45475;-58
2023/07/11 02:57:05;;;;;;;;;6.33;2.00;;;;;25.65;38.54;101039.53;5052886;28;45454;-60
2023/07/11 02:59:31;;;;;;;;;3.33;2.00;;;;;25.64;38.39;101039.59;5054959;28;45419;-58
2023/07/11 03:01:58;;;;;;;;;2.00;2.00;;;;;25.65;38.21;101035.91;5054387;28;45382;-59
2023/07/11 03:04:23;;;;;;;;;3.00;2.00;;;;;25.65;38.32;101033.19;5055323;28;46103;-58
2023/07/11 03:06:49;;;;;;;;;4.33;2.00;;;;;25.64;38.13;101028.63;5051458;28;45281;-59
2023/07/11 03:09:14;;;;;;;;;4.33;4.33;;;;;25.61;38.65;101023.28;5053899;28;45467;-60
2023/07/11 03:11:41;;;;;;;;;4.67;3.00;;;;;25.65;38.45;101025.84;5055934;28;45379;-61
2023/07/11 03:14:06;;;;;;;;;2.00;2.00;;;;;25.65;38.50;101030.44;5055116;28;45530;-61
2023/07/11 03:16:32;;;;;;;;;4.00;3.00;;;;;25.65;38.63;101027.72;5054827;28;45398;-60
2023/07/11 03:18:57;;;;;;;;;5.00;3.00;;;;;25.64;38.39;101029.56;5049343;28;45528;-59
2023/07/11 03:21:22;;;;;;;;;5.67;3.00;;;;;25.65;38.12;101019.50;5050389;28;45520;-59
2023/07/11 03:23:48;;;;;;;;;5.67;4.00;;;;;25.63;38.40;101022.28;5057431;28;46411;-60
2023/07/11 03:26:13;;;;;;;;;12.33;9.33;;;;;25.60;38.63;101014.16;5058630;28;45343;-61
2023/07/11 03:28:39;;;;;;;;;5.00;3.00;;;;;25.62;38.43;101012.28;5053618;28;45582;-58
2023/07/11 03:31:04;;;;;;;;;4.00;2.33;;;;;25.57;38.25;101003.31;5053595;28;45335;-58
2023/07/11 03:33:29;;;;;;;;;4.00;4.00;;;;;25.55;38.64;101007.94;5050151;28;45594;-59
2023/07/11 03:35:55;;;;;;;;;3.00;3.00;;;;;25.47;38.85;100991.78;5054910;28;45635;-60
2023/07/11 03:38:20;;;;;;;;;3.67;3.67;;;;;25.57;38.34;101003.31;5055095;28;45462;-59
2023/07/11 03:40:46;;;;;;;;;5.33;4.00;;;;;25.48;38.86;100989.94;5054275;28;45627;-58
2023/07/11 03:43:11;;;;;;;;;4.33;3.00;;;;;25.51;38.65;100996.22;5054857;28;46073;-59
2023/07/11 03:45:41;;;;;;;;;4.67;4.33;;;;;25.52;38.95;100998.03;5054867;28;45485;-59
2023/07/11 03:48:06;;;;;;;;;5.67;3.33;;;;;25.42;38.81;100979.19;5049223;28;45640;-60
2023/07/11 03:50:32;;;;;;;;;5.67;3.00;;;;;25.38;38.92;100972.94;5054460;28;45520;-59
2023/07/11 03:52:57;;;;;;;;;51.00;42.00;;;;;25.47;39.05;100997.25;5054406;28;45390;-60
2023/07/11 03:55:22;;;;;;;;;7.33;4.00;;;;;25.46;38.86;100992.75;5053359;28;45384;-59
2023/07/11 03:57:47;;;;;;;;;5.00;3.00;;;;;25.38;39.14;100992.09;5054407;28;45569;-58
2023/07/11 04:00:13;;;;;;;;;4.33;2.33;;;;;25.43;39.24;100994.69;5052096;28;47358;-58
2023/07/11 04:02:39;;;;;;;;;3.67;3.00;;;;;25.42;39.24;100990.13;5052929;28;45379;-59
2023/07/11 04:05:04;;;;;;;;;4.33;4.00;;;;;25.41;39.36;100994.72;5050404;28;45513;-59
2023/07/11 04:07:30;;;;;;;;;4.00;4.00;;;;;25.40;39.58;100995.66;5054566;28;45582;-59
2023/07/11 04:09:55;;;;;;;;;6.00;4.67;;;;;25.28;39.61;100972.31;5054613;28;45518;-60
2023/07/11 04:12:20;;;;;;;;;3.67;3.67;;;;;25.35;39.39;100986.69;5053893;28;46883;-57
2023/07/11 04:14:46;;;;;;;;;7.00;3.00;;;;;25.31;39.68;100979.53;5053906;28;45352;-59
2023/07/11 04:17:11;;;;;;;;;9.00;6.00;;;;;25.24;39.68;100981.50;5054481;28;45320;-59
2023/07/11 04:19:36;;;;;;;;;6.67;6.67;;;;;25.19;40.20;100978.03;5054411;28;45357;-59
2023/07/11 04:22:02;;;;;;;;;9.33;6.33;;;;;25.12;39.68;100976.44;5054350;28;45541;-59
2023/07/11 04:24:30;;;;;;;;;5.00;5.00;;;;;25.17;40.08;100990.88;5054401;28;45380;-61
2023/07/11 04:26:55;;;;;;;;;5.33;5.33;;;;;25.17;40.04;100991.75;5054785;28;45463;-58
2023/07/11 04:29:21;;;;;;;;;8.67;5.00;;;;;25.10;40.14;100983.81;5053054;28;45606;-61
2023/07/11 04:31:46;;;;;;;;;4.67;4.00;;;;;25.08;40.24;100983.84;5054429;28;45300;-60
2023/07/11 04:34:11;;;;;;;;;7.00;4.00;;;;;25.00;40.49;100969.50;5054175;28;45443;-59
2023/07/11 04:36:37;;;;;;;;;5.67;4.00;;;;;25.02;40.51;100959.41;5054589;28;45333;-61
2023/07/11 04:39:03;;;;;;;;;6.00;5.00;;;;;25.13;40.22;100987.34;5057645;28;45387;-58
2023/07/11 04:41:28;;;;;;;;;4.33;3.00;;;;;24.36;40.44;100855.69;5060693;28;46669;-58
2023/07/11 04:43:54;;;;;;;;;6.00;6.00;;;;;25.06;40.55;100969.31;5059155;28;45375;-59
2023/07/11 04:46:19;;;;;;;;;7.00;5.00;;;;;25.08;40.20;100978.38;5059734;28;45446;-58
2023/07/11 04:48:46;;;;;;;;;5.00;3.67;;;;;25.05;40.22;100977.59;5060907;28;45498;-59
2023/07/11 04:51:11;;;;;;;;;6.33;5.00;;;;;25.00;40.38;100973.13;5060816;28;45444;-58
2023/07/11 04:53:38;;;;;;;;;5.67;5.67;;;;;25.00;40.54;100980.44;5060178;28;45313;-59
2023/07/11 04:56:06;;;;;;;;;7.00;5.67;;;;;25.00;40.81;100973.13;5061308;28;45242;-60
2023/07/11 04:58:34;;;;;;;;;6.67;6.33;;;;;25.02;40.50;100976.72;5061263;28;45298;-59
2023/07/11 05:01:07;;;;;;;;;4.33;4.33;;;;;24.98;40.85;100968.66;5059815;28;46053;-59
2023/07/11 05:03:32;;;;;;;;;6.67;6.00;;;;;24.97;40.83;100966.88;5060181;28;45334;-58
2023/07/11 05:05:58;;;;;;;;;8.00;6.67;;;;;25.00;40.39;100975.88;5061526;28;45590;-61
2023/07/11 05:08:24;;;;;;;;;3.67;3.67;;;;;24.97;40.68;100966.88;5062811;28;45491;-60
2023/07/11 05:10:58;;;;;;;;;6.33;6.33;;;;;24.96;40.56;100968.72;5064929;28;47661;-73
2023/07/11 05:13:24;;;;;;;;;2.33;2.33;;;;;25.05;41.12;100980.31;5055168;28;45591;-68
2023/07/11 05:15:49;;;;;;;;;4.00;4.00;;;;;25.06;40.54;100979.34;5060776;28;45384;-63
2023/07/11 05:18:14;;;;;;;;;4.00;4.00;;;;;25.05;40.59;100983.94;5061200;28;45254;-75
2023/07/11 05:20:40;;;;;;;;;6.33;5.00;;;;;25.01;40.61;100982.22;5059946;28;46273;-62
2023/07/11 05:23:05;;;;;;;;;4.00;4.00;;;;;24.96;41.16;100985.13;5060737;28;45374;-59
2023/07/11 05:25:31;;;;;;;;;5.00;4.00;;;;;24.97;41.17;100986.88;5061821;28;45636;-59
2023/07/11 05:27:56;;;;;;;;;4.00;4.00;;;;;24.94;40.78;100988.81;5059690;28;45550;-64
2023/07/11 05:30:21;;;;;;;;;5.33;5.33;;;;;24.94;41.30;100988.81;5060328;28;45499;-60
2023/07/11 05:32:47;;;;;;;;;7.00;5.00;;;;;24.86;41.00;100971.75;5060265;28;45591;-61
2023/07/11 05:35:12;;;;;;;;;5.00;3.33;;;;;24.93;41.40;100987.00;5059173;28;45607;-63
2023/07/11 05:37:38;;;;;;;;;4.67;4.00;;;;;24.89;41.32;100969.81;5058759;28;45278;-60
2023/07/11 05:40:04;;;;;;;;;7.00;4.00;;;;;24.94;41.46;100977.88;5058544;28;46942;-67
2023/07/11 05:42:29;;;;;;;;;4.67;3.67;;;;;24.93;41.76;100978.81;5058043;28;45344;-69
2023/07/11 05:44:54;;;;;;;;;3.67;3.00;;;;;24.87;41.37;100968.09;5058704;28;45739;-65
2023/07/11 05:47:20;;;;;;;;;4.67;4.00;;;;;24.88;41.57;100975.31;5060769;28;45285;-63
2023/07/11 05:49:45;;;;;;;;;5.33;5.00;;;;;24.88;41.20;100968.03;5058577;28;45542;-71
2023/07/11 05:52:11;;;;;;;;;4.33;3.33;;;;;24.91;41.62;100969.78;5055958;28;46136;-65
2023/07/11 05:54:36;;;;;;;;;3.00;3.00;;;;;24.92;41.40;100961.53;5055685;28;45418;-63
2023/07/11 05:57:02;;;;;;;;;2.33;2.33;;;;;24.93;41.37;100960.59;5056854;28;45410;-59
2023/07/11 05:59:28;;;;;;;;;3.00;3.00;;;;;24.94;41.43;100958.75;5054693;28;46483;-65
2023/07/11 06:01:53;;;;;;;;;3.67;3.67;;;;;24.96;41.58;100962.31;5056023;28;54673;-59
2023/07/11 06:04:19;;;;;;;;;5.67;3.67;;;;;24.99;41.61;100954.03;5056491;28;45343;-74
2023/07/11 06:06:44;;;;;;;;;4.00;4.00;;;;;24.95;40.99;100944.16;5056450;28;45585;-60
2023/07/11 06:09:12;;;;;;;;;7.33;4.33;;;;;25.04;41.50;100953.91;5055929;28;45661;-60
2023/07/11 06:11:37;;;;;;;;;7.33;4.33;;;;;25.04;40.98;100952.06;5054050;28;45692;-71
2023/07/11 06:14:03;;;;;;;;;9.67;7.33;;;;;25.07;41.04;100945.63;5055847;28;45400;-67
2023/07/11 06:16:29;;;;;;;;;4.00;3.00;;;;;25.12;40.86;100947.25;5054938;28;45329;-62
2023/07/11 06:18:55;;;;;;;;;9.00;6.00;;;;;25.21;41.00;100959.75;5055937;28;46389;-69
2023/07/11 06:21:21;;;;;;;;;6.00;3.67;;;;;25.15;40.51;100943.53;5055967;28;45295;-64
2023/07/11 06:23:47;;;;;;;;;5.67;4.00;;;;;25.22;40.50;100963.38;5056559;28;45517;-61
2023/07/11 06:26:13;;;;;;;;;5.00;3.00;;;;;25.23;40.44;100956.94;5056113;28;45315;-70
2023/07/11 06:28:39;;;;;;;;;5.00;4.33;;;;;25.19;40.64;100948.88;5055110;28;45432;-63
2023/07/11 06:31:04;;;;;;;;;6.00;6.00;;;;;25.09;40.56;100920.00;5055049;28;45407;-67
2023/07/11 06:33:30;;;;;;;;;3.00;3.00;;;;;25.32;40.79;100954.84;5056219;28;45866;-61
2023/07/11 06:35:57;;;;;;;;;5.00;4.33;;;;;25.36;40.50;100951.09;5054243;28;45537;-59
2023/07/11 06:38:22;;;;;;;;;7.00;4.33;;;;;25.40;40.93;100943.69;5055293;28;46242;-65
2023/07/11 06:40:53;;;;;;;;;4.00;4.00;;;;;25.44;40.94;100939.91;5055877;28;45509;-59
2023/07/11 06:43:19;;;;;;;;;4.33;4.33;;;;;25.46;40.75;100938.03;5055741;28;45532;-60
2023/07/11 06:45:48;;;;;;;;;3.00;3.00;;;;;25.52;40.89;100936.91;5054869;28;45514;-65
2023/07/11 06:48:15;;;;;;;;;5.00;4.00;;;;;25.57;40.93;100945.88;5055594;28;45428;-61
2023/07/11 06:50:41;;;;;;;;;3.67;3.67;;;;;25.62;40.57;100941.13;5055816;28;45843;-60
2023/07/11 06:53:07;;;;;;;;;4.67;4.67;;;;;25.63;40.53;100934.72;5049145;28;45501;-70
2023/07/11 06:55:32;;;;;;;;;4.67;4.67;;;;;25.73;40.81;100947.16;5055866;28;45381;-60
2023/07/11 06:57:57;;;;;;;;;6.00;4.33;;;;;25.79;40.38;100943.31;5054275;28;45369;-61
2023/07/11 07:00:24;;;;;;;;;3.67;3.00;;;;;25.84;40.11;100937.69;5054243;28;45574;-61
2023/07/11 07:02:50;;;;;;;;;5.33;3.67;;;;;25.86;39.83;100939.41;5054534;28;45461;-62
2023/07/11 07:05:15;;;;;;;;;2.00;2.00;;;;;25.88;40.24;100934.78;5054509;28;45469;-64
2023/07/11 07:07:40;;;;;;;;;5.00;4.33;;;;;25.85;40.32;100929.41;5055933;28;45640;-61
2023/07/11 07:10:07;;;;;;;;;7.00;4.00;;;;;25.84;40.34;100918.53;5055005;28;52147;-64
2023/07/11 07:12:32;;;;;;;;;5.33;4.67;;;;;25.95;40.06;100932.72;5055499;28;45554;-61
2023/07/11 07:14:57;;;;;;;;;6.00;3.33;;;;;25.99;39.91;100925.34;5050980;28;45463;-70
2023/07/11 07:17:23;;;;;;;;;7.00;5.00;;;;;26.00;39.73;100925.28;5051634;28;46265;-62
2023/07/11 07:19:48;;;;;;;;;4.67;4.67;;;;;26.07;39.62;100932.34;5054808;28;45387;-61
2023/07/11 07:22:15;;;;;;;;;4.00;4.00;;;;;26.07;39.45;100920.50;5055049;28;45247;-63
2023/07/11 07:24:41;;;;;;;;;3.00;3.00;;;;;26.20;39.46;100931.91;5053638;28;44944;-64
2023/07/11 07:27:06;;;;;;;;;4.00;2.00;;;;;26.24;39.42;100926.25;5054733;28;46173;-70
2023/07/11 07:29:31;;;;;;;;;2.67;2.00;;;;;26.32;39.18;100925.09;5054319;28;45516;-60
2023/07/11 07:31:59;;;;;;;;;3.00;3.00;;;;;26.38;38.85;100924.84;5054284;28;45381;-62
2023/07/11 07:34:24;;;;;;;;;4.00;3.33;;;;;26.45;38.84;100924.59;5055199;28;45467;-61
2023/07/11 07:36:50;;;;;;;;;4.67;3.00;;;;;26.47;38.85;100914.44;5054758;28;45650;-59
2023/07/11 07:39:15;;;;;;;;;4.67;3.00;;;;;26.44;38.45;100895.38;5054276;28;63030;-59
2023/07/11 07:41:42;;;;;;;;;4.00;3.33;;;;;26.54;38.48;100900.53;5054838;28;49866;-61
2023/07/11 07:44:08;;;;;;;;;6.67;4.33;;;;;26.58;38.56;100911.31;5051261;28;45457;-61
2023/07/11 07:46:33;;;;;;;;;3.00;3.00;;;;;26.62;38.36;100892.91;5055405;28;46405;-60
2023/07/11 07:48:59;;;;;;;;;5.00;2.33;;;;;26.78;38.39;100898.75;5054804;28;55388;-61
2023/07/11 07:51:24;;;;;;;;;4.00;2.33;;;;;26.77;38.53;100895.09;5053386;28;45215;-64
2023/07/11 07:53:49;;;;;;;;;3.00;3.00;;;;;26.87;38.02;100900.22;5054464;28;45360;-61
2023/07/11 07:56:19;;;;;;;;;5.33;4.67;;;;;26.94;38.28;100904.50;5054376;28;45560;-60
2023/07/11 07:58:44;;;;;;;;;4.00;3.00;;;;;26.97;38.01;100902.53;5054424;28;45352;-62
2023/07/11 08:01:12;;;;;;;;;4.67;4.00;;;;;26.99;38.17;100894.25;5054019;28;45570;-62
2023/07/11 08:03:39;;;;;;;;;4.00;4.00;;;;;27.06;38.17;100897.63;5053739;28;45483;-63
2023/07/11 08:06:05;;;;;;;;;4.67;3.00;;;;;27.14;38.20;100900.97;5054043;28;45350;-61
2023/07/11 08:08:30;;;;;;;;;1.33;1.33;;;;;27.10;37.96;100881.00;5054271;28;45436;-62
2023/07/11 08:11:00;;;;;;;;;5.00;5.00;;;;;27.24;38.12;100902.41;5054727;28;45332;-64
2023/07/11 08:13:25;;;;;;;;;6.67;5.00;;;;;27.25;38.40;100882.22;5054549;28;45457;-62
2023/07/11 08:15:51;;;;;;;;;4.33;4.00;;;;;27.39;37.89;100889.94;5053779;28;56528;-61
2023/07/11 08:18:16;;;;;;;;;5.00;2.00;;;;;27.47;37.75;100882.28;5053787;28;45447;-60
2023/07/11 08:20:42;;;;;;;;;3.00;3.00;;;;;27.50;37.95;100867.50;5053302;28;45528;-60
2023/07/11 08:23:07;;;;;;;;;4.00;3.00;;;;;27.58;37.51;100874.47;5054285;28;45324;-61
2023/07/11 08:25:33;;;;;;;;;5.00;3.33;;;;;27.63;37.44;100870.63;5054295;28;45404;-61
2023/07/11 08:27:59;;;;;;;;;4.67;4.33;;;;;27.72;37.39;100862.03;5053670;28;45416;-61
2023/07/11 08:30:24;;;;;;;;;4.00;3.00;;;;;27.80;37.54;100858.91;5053996;28;45591;-61
2023/07/11 08:32:50;;;;;;;;;5.67;4.00;;;;;27.90;37.44;100857.53;5054063;28;45479;-61
2023/07/11 08:35:15;;;;;;;;;4.00;4.00;;;;;28.01;36.91;100857.13;5052942;28;45416;-62
2023/07/11 08:37:40;;;;;;;;;6.00;4.00;;;;;27.86;37.09;100823.84;5052060;28;45443;-63
2023/07/11 08:40:09;;;;;;;;;6.00;5.00;;;;;28.18;37.09;100856.34;5052396;28;45403;-60
2023/07/11 08:42:40;;;;;;;;;9.33;6.33;;;;;28.25;36.78;100872.50;5053786;28;45512;-59
2023/07/11 08:45:26;;;;;;;;;4.67;4.00;;;;;28.28;37.13;100866.84;5053741;28;45867;-59
2023/07/11 08:48:04;;;;;;;;;3.33;3.33;;;;;28.35;36.83;100861.09;5053991;28;45412;-62
2023/07/11 08:50:39;;;;;;;;;6.00;5.00;;;;;28.30;36.65;100842.94;5048619;28;45467;-60
2023/07/11 08:53:31;;;;;;;;;4.67;4.33;;;;;28.47;36.24;100846.75;5053243;28;45495;-61
2023/07/11 08:56:22;;;;;;;;;9.33;6.33;;;;;28.55;36.59;100841.81;5051909;28;46223;-59
2023/07/11 08:58:49;;;;;;;;;5.00;4.00;;;;;28.67;36.07;100843.09;5053129;28;45440;-60
2023/07/11 09:01:50;;;;;;;;;3.00;3.00;;;;;28.71;36.40;100839.25;5053318;28;45596;-60
2023/07/11 09:04:20;;;;;;;;;6.00;4.00;;;;;28.75;35.83;100831.75;5025109;28;45586;-65
2023/07/11 09:06:55;;;;;;;;;4.00;3.00;;;;;28.84;36.01;100834.94;5053349;28;45529;-61
2023/07/11 09:09:20;;;;;;;;;4.00;4.00;;;;;28.91;35.73;100829.16;5052577;28;45554;-60
2023/07/11 09:11:57;;;;;;;;;5.67;5.00;;;;;28.87;35.20;100814.63;5051572;28;45229;-64
2023/07/11 09:14:38;;;;;;;;;4.00;4.00;;;;;28.91;35.00;100820.91;5053148;28;45306;-59
2023/07/11 09:17:16;;;;;;;;;6.00;4.67;;;;;28.96;35.59;100821.56;5052921;28;46267;-62
2023/07/11 09:19:58;;;;;;;;;6.33;4.00;;;;;29.00;34.90;100828.69;5048010;28;45526;-62
2023/07/11 09:22:26;;;;;;;;;5.33;4.33;;;;;29.04;35.46;100819.31;5053822;28;45508;-60
2023/07/11 09:25:22;;;;;;;;;6.00;3.33;;;;;29.07;35.01;100818.25;5051741;28;45402;-61
2023/07/11 09:27:53;;;;;;;;;3.67;3.33;;;;;29.08;35.17;100818.19;5057871;28;45531;-67
2023/07/11 09:30:31;;;;;;;;;5.00;5.00;;;;;29.14;35.60;100817.00;5056224;28;45460;-64
2023/07/11 09:33:28;;;;;;;;;6.00;4.33;;;;;29.21;35.52;100815.75;5058571;28;45623;-62
2023/07/11 09:35:55;;;;;;;;;5.00;5.00;;;;;29.26;35.18;100802.66;5056084;28;45638;-61
2023/07/11 09:39:16;;;;;;;;;7.00;7.00;;;;;29.33;35.33;100808.72;5058083;28;46228;-62
2023/07/11 09:41:50;;;;;;;;;3.00;2.67;;;;;29.37;34.96;100799.38;5032039;28;45295;-60
2023/07/11 09:44:16;;;;;;;;;6.00;4.67;;;;;29.35;34.86;100796.69;5056128;28;45440;-61
2023/07/11 09:46:42;;;;;;;;;8.00;3.33;;;;;29.36;35.47;100787.44;5055712;28;45573;-63
2023/07/11 09:49:17;;;;;;;;;5.00;5.00;;;;;29.38;34.94;100791.00;5055942;28;59866;-61
2023/07/11 09:51:55;;;;;;;;;6.67;4.67;;;;;29.36;35.21;100789.31;5055791;28;45472;-62
2023/07/11 09:54:24;;;;;;;;;6.67;6.33;;;;;29.44;34.69;100777.91;5053086;28;45532;-61
2023/07/11 09:56:50;;;;;;;;;7.00;5.33;;;;;29.53;34.83;100780.16;5056949;28;45446;-61
2023/07/11 09:59:17;;;;;;;;;9.00;7.00;;;;;29.63;34.75;100772.31;5044390;28;46302;-68
2023/07/11 10:01:43;;;;;;;;;6.33;4.33;;;;;29.73;34.23;100780.03;5056390;28;45400;-63
2023/07/11 10:04:15;;;;;;;;;8.67;6.33;;;;;29.76;33.01;100773.44;5056634;28;45487;-63
2023/07/11 10:06:44;;;;;;;;;8.67;7.33;;;;;29.68;32.89;100754.59;5056917;28;45515;-64
2023/07/11 10:09:25;;;;;;;;;6.33;4.33;;;;;29.76;33.49;100771.59;5054909;28;48352;-61
2023/07/11 10:11:59;;;;;;;;;3.33;3.00;;;;;29.80;34.04;100752.16;5056488;28;45610;-64
2023/07/11 10:14:39;;;;;;;;;3.67;3.67;;;;;29.81;33.55;100751.19;5055517;28;45609;-64
2023/07/11 10:17:21;;;;;;;;;5.67;5.33;;;;;29.82;33.70;100755.75;5050054;28;45584;-64
2023/07/11 10:19:54;;;;;;;;;4.33;4.33;;;;;29.85;32.96;100755.59;5051861;28;46233;-68
2023/07/11 10:22:22;;;;;;;;;8.00;5.67;;;;;29.86;33.20;100736.19;5056330;28;45487;-63
2023/07/11 10:24:50;;;;;;;;;7.00;7.00;;;;;29.93;33.29;100748.69;5057036;28;45414;-64
2023/07/11 10:27:27;;;;;;;;;4.00;3.67;;;;;29.94;33.19;100744.94;5056685;28;45575;-63
2023/07/11 10:29:57;;;;;;;;;6.67;5.33;;;;;29.97;33.09;100743.00;5054590;28;45368;-63
2023/07/11 10:32:56;;;;;;;;;6.33;5.33;;;;;29.98;33.35;100731.91;5054508;28;45953;-62
2023/07/11 10:35:23;;;;;;;;;10.00;9.67;;;;;30.01;33.29;100730.81;5049939;28;45548;-63
2023/07/11 10:38:05;;;;;;;;;6.00;6.00;;;;;30.03;33.79;100731.63;5055480;28;45412;-64
2023/07/11 10:40:36;;;;;;;;;3.00;3.00;;;;;30.10;33.61;100731.22;5055505;28;45485;-64
2023/07/11 10:43:04;;;;;;;;;6.00;6.00;;;;;30.11;33.25;100734.84;5053018;28;45224;-63
2023/07/11 10:45:37;;;;;;;;;4.00;4.00;;;;;30.07;32.94;100723.09;5054172;28;45358;-64
2023/07/11 10:48:32;;;;;;;;;4.67;4.00;;;;;30.07;33.03;100716.72;5055800;28;45721;-61
2023/07/11 10:51:08;;;;;;;;;7.00;5.33;;;;;30.17;33.26;100714.34;5054948;28;46152;-63
2023/07/11 10:53:39;;;;;;;;;7.67;4.00;;;;;30.17;32.44;100708.81;5055511;28;45446;-61
2023/07/11 10:56:19;;;;;;;;;7.00;5.33;;;;;30.20;33.00;100712.28;5056144;28;45373;-62
2023/07/11 10:58:45;;;;;;;;;4.67;4.67;;;;;30.28;32.80;100711.88;5055647;28;45357;-61
2023/07/11 11:01:13;;;;;;;;;4.67;4.67;;;;;30.34;32.68;100700.47;5056711;28;45982;-63
2023/07/11 11:03:42;;;;;;;;;3.33;3.33;;;;;30.36;32.21;100692.13;5056271;28;45688;-63
2023/07/11 11:06:20;;;;;;;;;6.00;5.00;;;;;30.38;32.13;100688.34;5055887;28;45818;-61
2023/07/11 11:09:06;;;;;;;;;5.00;5.00;;;;;30.43;31.93;100693.59;5054564;28;45422;-62
2023/07/11 11:11:42;;;;;;;;;7.33;7.33;;;;;30.42;32.20;100683.53;5055699;28;45985;-62
2023/07/11 11:14:18;;;;;;;;;7.00;6.33;;;;;30.42;32.32;100676.16;5055607;28;45599;-61
2023/07/11 11:17:04;;;;;;;;;7.00;6.00;;;;;30.52;31.88;100678.38;5055544;28;45372;-63
2023/07/11 11:20:11;;;;;;;;;6.00;4.67;;;;;30.60;31.73;100671.44;5054508;28;45448;-64
2023/07/11 11:23:06;;;;;;;;;5.67;5.67;;;;;30.67;31.89;100672.88;5054772;28;46088;-62
2023/07/11 11:25:47;;;;;;;;;4.00;4.00;;;;;30.74;31.55;100667.88;5049993;28;45618;-62
2023/07/11 11:28:39;;;;;;;;;5.33;5.33;;;;;30.77;31.68;100662.19;5054822;28;45373;-62
2023/07/11 11:31:23;;;;;;;;;11.00;11.00;;;;;30.85;31.71;100667.22;5021254;28;45800;-63